Hauptseite
METAR-TAF:

METAR-TAF

Flughäfen :

Fliegerhorst Ingolstadt/Manching

Ingolstadt, Deutschland

Breite: 48-43N, Länge: 011-32E, Höhe: 367 m

Beobachtung

Neuester Wetterbericht von vor 30 Minuten, um 06:20 UTC
Windstille
Temperatur -3°C
Luftfeuchtigkeit 93%
Luftdruck 1032 hPa
Sichtweite 10 km oder mehr

METAR: ETSI 010620Z 00000KT 9999 M03/M04 Q1032 BLU+BLU+

Zeit: 07:50 (06:50 UTC)

Prognose

Neuester Wetterbericht von vor 1 Stunde und 50 Minuten, um 05:00 UTC
Gültige Prognose vom 01 um 06 UTC bis 01 um 15 UTC
Wind 8 kt aus Ost
Sichtweite 10 km oder mehr
Himmel klar

TAF: ETSI 010500Z 0106/0115 08008KT 9999 NSW SKC

Wetterbeobachtungen und Prognosen von mehr als 4000 Flughäfen (METAR und TAF Bericht).

Die verfügbaren Stationen werden durch gelbe und rote Markierungen auf der Karte dargestellt.

Führen Sie die Maus auf sie, um den Namen der Station zu sehen.

Darauf klicken, um die Beobachtung von Wetterbeobachtungen und Prognosen zu sehen.

Um die Karte zu ändern : klicken Sie auf den grünen Tasten mit einem schwarzen Kreuz Zum Vergrößern, auf den grünen Button mit einem Gedankenstrich zu verkleinern, oder auf die grünen Pfeile für benachbarte Karten.


METAR-TAF: